Time;durP1;ratioP1;P1;durP2;ratioP2;P2;SDS_P1;SDS_P2;PMS_P1;PMS_P2;Temp;Humidity;BMP_temperature;BMP_pressure;BME280_temperature;BME280_humidity;BME280_pressure;Samples;Min_cycle;Max_cycle;Signal;HPM_P1;HPM_P2
2023/01/22 00:00:37;;;;;;;148.82;40.70;;;;;;;-144.87;100.00;61487.56;5005090;28;20087;-77
2023/01/22 00:03:04;;;;;;;152.02;40.65;;;;;;;-144.87;100.00;61487.56;5005316;28;20088;-77
2023/01/22 00:05:30;;;;;;;143.95;40.72;;;;;;;-144.87;100.00;61487.56;5038492;28;20056;-77
2023/01/22 00:07:56;;;;;;;162.90;44.47;;;;;;;-144.87;100.00;61487.56;5008663;28;20076;-77
2023/01/22 00:10:22;;;;;;;165.90;46.40;;;;;;;-144.87;100.00;61487.56;5039706;28;20061;-77
2023/01/22 00:12:49;;;;;;;169.57;47.47;;;;;;;-144.87;100.00;61487.56;5006183;28;20034;-77
2023/01/22 00:15:15;;;;;;;191.02;51.53;;;;;;;-144.87;100.00;61487.56;5033937;28;20030;-77
2023/01/22 00:17:41;;;;;;;169.43;49.65;;;;;;;-144.87;100.00;61487.56;5038354;28;20026;-77
2023/01/22 00:20:08;;;;;;;160.02;50.45;;;;;;;-144.87;100.00;61487.56;4983455;28;20425;-77
2023/01/22 00:22:35;;;;;;;145.20;45.33;;;;;;;-144.87;100.00;61487.56;5036851;28;20407;-77
2023/01/22 00:25:02;;;;;;;165.65;47.95;;;;;;;-144.87;100.00;61487.56;5022611;28;20076;-77
2023/01/22 00:27:28;;;;;;;137.30;45.60;;;;;;;-144.87;100.00;61487.56;5004751;28;20117;-77
2023/01/22 00:29:55;;;;;;;138.50;46.97;;;;;;;-144.87;100.00;61487.56;5039003;28;20072;-77
2023/01/22 00:32:21;;;;;;;129.35;46.30;;;;;;;-144.87;100.00;61487.56;5006539;28;20133;-77
2023/01/22 00:34:51;;;;;;;127.95;45.10;;;;;;;-144.87;100.00;61487.56;5003584;28;20042;-77
2023/01/22 00:37:19;;;;;;;97.10;33.23;;;;;;;-144.87;100.00;61487.56;5020990;28;20048;-77
2023/01/22 00:39:45;;;;;;;123.55;42.58;;;;;;;-144.87;100.00;61487.56;4989346;28;20034;-77
2023/01/22 00:42:11;;;;;;;130.05;44.97;;;;;;;-144.87;100.00;61487.56;5007195;28;20099;-78
2023/01/22 00:44:37;;;;;;;127.57;44.20;;;;;;;-144.87;100.00;61487.56;5038493;28;20120;-77
2023/01/22 00:47:04;;;;;;;126.65;43.80;;;;;;;-144.87;100.00;61487.56;5038451;28;20389;-78
2023/01/22 00:49:30;;;;;;;124.78;43.42;;;;;;;-144.87;100.00;61487.56;5003738;28;20045;-78
2023/01/22 00:51:56;;;;;;;114.15;41.58;;;;;;;-144.87;100.00;61487.56;5005711;28;20142;-78
2023/01/22 00:54:23;;;;;;;119.65;41.40;;;;;;;-144.87;100.00;61487.56;5040229;28;20137;-77
2023/01/22 00:56:49;;;;;;;111.28;40.65;;;;;;;-144.87;100.00;61487.56;5039688;28;20045;-78
2023/01/22 00:59:15;;;;;;;97.22;38.53;;;;;;;-144.87;100.00;61487.56;5004477;28;20137;-77
2023/01/22 01:01:42;;;;;;;98.95;38.38;;;;;;;-144.87;100.00;61487.56;5039404;28;20040;-78
2023/01/22 01:04:08;;;;;;;88.75;37.90;;;;;;;-144.87;100.00;61487.56;5021185;28;20038;-77
2023/01/22 01:06:34;;;;;;;92.47;37.63;;;;;;;-144.87;100.00;61487.56;5003226;28;20096;-78
2023/01/22 01:09:00;;;;;;;91.50;37.10;;;;;;;-144.87;100.00;61487.56;5006373;28;21409;-77
2023/01/22 01:11:28;;;;;;;88.80;36.22;;;;;;;-144.87;100.00;61487.56;5020276;28;20136;-77
2023/01/22 01:13:55;;;;;;;75.30;34.22;;;;;;;-144.87;100.00;61487.56;5008343;28;20129;-77
2023/01/22 01:16:29;;;;;;;77.75;34.28;;;;;;;-144.87;100.00;61487.56;5035737;28;20034;-76
2023/01/22 01:19:04;;;;;;;84.32;34.67;;;;;;;-144.87;100.00;61487.56;5034319;28;20079;-78
2023/01/22 01:21:31;;;;;;;77.07;33.38;;;;;;;-144.87;100.00;61487.56;4991530;28;20056;-78
2023/01/22 01:23:58;;;;;;;78.40;33.17;;;;;;;-144.87;100.00;61487.56;5021412;28;20041;-78
2023/01/22 01:26:25;;;;;;;70.10;31.48;;;;;;;-144.87;100.00;61487.56;5019775;28;20025;-77
2023/01/22 01:28:52;;;;;;;64.97;28.63;;;;;;;-144.87;100.00;61487.56;4989598;28;20309;-77
2023/01/22 01:31:20;;;;;;;67.72;30.20;;;;;;;-144.87;100.00;61487.56;5005511;28;20041;-78
2023/01/22 01:33:47;;;;;;;65.32;30.40;;;;;;;-144.87;100.00;61487.56;5036474;28;20068;-78
2023/01/22 01:36:19;;;;;;;64.97;28.77;;;;;;;-144.87;100.00;61487.56;5006050;28;20033;-77
2023/01/22 01:38:45;;;;;;;63.60;28.38;;;;;;;-144.87;100.00;61487.56;5038266;28;20106;-78
2023/01/22 01:41:14;;;;;;;64.47;28.70;;;;;;;-144.87;100.00;61487.56;5033289;28;20029;-78
2023/01/22 01:43:41;;;;;;;55.17;26.13;;;;;;;-144.87;100.00;61487.56;5018226;28;20058;-77
2023/01/22 01:46:19;;;;;;;59.22;27.35;;;;;;;-144.87;100.00;61487.56;5021184;28;20030;-77
2023/01/22 01:48:48;;;;;;;53.30;26.98;;;;;;;-144.87;100.00;61487.56;5016589;28;20117;-78
2023/01/22 01:51:18;;;;;;;57.92;27.05;;;;;;;-144.87;100.00;61487.56;5017248;28;20034;-78
2023/01/22 01:53:48;;;;;;;52.15;23.90;;;;;;;-144.87;100.00;61487.56;5005729;28;20139;-77
2023/01/22 01:56:25;;;;;;;57.67;24.85;;;;;;;-144.87;100.00;61487.56;5006103;28;20026;-78
2023/01/22 01:58:54;;;;;;;51.80;24.30;;;;;;;-144.87;100.00;61487.56;5036078;28;20030;-77
2023/01/22 02:01:21;;;;;;;54.08;24.23;;;;;;;-144.87;100.00;61487.56;4986985;28;20045;-78
2023/01/22 02:03:47;;;;;;;47.72;23.23;;;;;;;-144.87;100.00;61487.56;5021443;28;20042;-77
2023/01/22 02:06:15;;;;;;;51.83;24.55;;;;;;;-144.87;100.00;61487.56;5035977;28;20480;-78
2023/01/22 02:08:44;;;;;;;49.20;22.73;;;;;;;-144.87;100.00;61487.56;5002978;28;20042;-78
2023/01/22 02:11:10;;;;;;;45.80;21.98;;;;;;;-144.87;100.00;61487.56;5017105;28;20092;-78
2023/01/22 02:13:41;;;;;;;49.00;22.48;;;;;;;-144.87;100.00;61487.56;5038561;28;20026;-78
2023/01/22 02:16:09;;;;;;;49.63;24.08;;;;;;;-144.87;100.00;61487.56;5036363;28;20036;-78
2023/01/22 02:18:35;;;;;;;43.78;22.15;;;;;;;-144.87;100.00;61487.56;5004828;28;20107;-78
2023/01/22 02:21:02;;;;;;;45.40;21.50;;;;;;;-144.87;100.00;61487.56;5038140;28;20120;-78
2023/01/22 02:23:30;;;;;;;43.20;21.25;;;;;;;-144.87;100.00;61487.56;5003620;28;20034;-78
2023/01/22 02:25:57;;;;;;;43.28;21.95;;;;;;;-144.87;100.00;61487.56;5020364;28;20087;-78
2023/01/22 02:28:23;;;;;;;46.65;21.98;;;;;;;-144.87;100.00;61487.56;5004309;28;20034;-78
2023/01/22 02:30:53;;;;;;;48.65;21.77;;;;;;;-144.87;100.00;61487.56;5021331;28;20092;-78
2023/01/22 02:33:19;;;;;;;40.95;21.40;;;;;;;-144.87;100.00;61487.56;5004925;28;20058;-78
2023/01/22 02:35:45;;;;;;;39.72;20.00;;;;;;;-144.87;100.00;61487.56;5004250;28;20022;-78
2023/01/22 02:38:13;;;;;;;34.83;19.08;;;;;;;-144.87;100.00;61487.56;5011184;28;20038;-77
2023/01/22 02:40:47;;;;;;;40.72;19.85;;;;;;;-144.87;100.00;61487.56;5007080;28;20037;-77
2023/01/22 02:43:15;;;;;;;33.10;18.70;;;;;;;-144.87;100.00;61487.56;5017715;28;20059;-78
2023/01/22 02:45:42;;;;;;;37.80;19.15;;;;;;;-144.87;100.00;61487.56;5040062;28;20045;-78
2023/01/22 02:48:08;;;;;;;39.25;19.30;;;;;;;-144.87;100.00;61487.56;5009906;28;20100;-77
2023/01/22 02:50:36;;;;;;;34.13;18.83;;;;;;;-144.87;100.00;61487.56;4990378;28;20065;-78
2023/01/22 02:53:03;;;;;;;38.58;19.67;;;;;;;-144.87;100.00;61487.56;5038328;28;20030;-77
2023/01/22 02:55:29;;;;;;;33.22;18.77;;;;;;;-144.87;100.00;61487.56;5007349;28;20034;-77
2023/01/22 02:57:56;;;;;;;36.53;18.73;;;;;;;-144.87;100.00;61487.56;5022959;28;20033;-77
2023/01/22 03:00:23;;;;;;;37.58;18.75;;;;;;;-144.87;100.00;61487.56;5040666;28;20034;-77
2023/01/22 03:02:50;;;;;;;35.70;17.73;;;;;;;-144.87;100.00;61487.56;5025199;28;20049;-78
2023/01/22 03:05:16;;;;;;;36.20;18.42;;;;;;;-144.87;100.00;61487.56;5025191;28;20088;-78
2023/01/22 03:07:43;;;;;;;32.28;15.88;;;;;;;-144.87;100.00;61487.56;5041579;28;20052;-77
2023/01/22 03:10:15;;;;;;;35.72;16.08;;;;;;;-144.87;100.00;61487.56;5006716;28;20050;-77
2023/01/22 03:21:14;;;;;;;28.77;15.25;;;;;;;-144.87;100.00;61487.56;5032105;28;20049;-77
2023/01/22 03:23:46;;;;;;;30.05;15.40;;;;;;;-144.87;100.00;61487.56;5007205;28;20132;-77
2023/01/22 03:26:14;;;;;;;26.30;14.18;;;;;;;-144.87;100.00;61487.56;5023270;28;20045;-77
2023/01/22 03:28:41;;;;;;;26.30;15.07;;;;;;;-144.87;100.00;61487.56;5021930;28;20077;-77
2023/01/22 03:31:07;;;;;;;26.92;14.93;;;;;;;-144.87;100.00;61487.56;4991324;28;20029;-77
2023/01/22 03:33:35;;;;;;;25.33;14.73;;;;;;;-144.87;100.00;61487.56;4991792;28;20435;-79
2023/01/22 03:36:07;;;;;;;25.23;14.32;;;;;;;-144.87;100.00;61487.56;5007337;28;20095;-77
2023/01/22 03:38:35;;;;;;;28.50;14.77;;;;;;;-144.87;100.00;61487.56;5018630;28;20560;-77
2023/01/22 03:41:06;;;;;;;24.70;13.70;;;;;;;-144.87;100.00;61487.56;5022820;28;20307;-77
2023/01/22 03:43:33;;;;;;;29.27;14.40;;;;;;;-144.87;100.00;61487.56;5007592;28;20549;-77
2023/01/22 03:46:12;;;;;;;27.30;12.77;;;;;;;-144.87;100.00;61487.56;5038022;28;20034;-81
2023/01/22 03:48:41;;;;;;;25.35;12.85;;;;;;;-144.87;100.00;61487.56;5006987;28;20038;-77
2023/01/22 03:51:15;;;;;;;27.73;14.13;;;;;;;-144.87;100.00;61487.56;4986841;28;20064;-77
2023/01/22 03:53:42;;;;;;;28.20;13.93;;;;;;;-144.87;100.00;61487.56;5019359;28;20035;-77
2023/01/22 03:56:13;;;;;;;28.23;14.60;;;;;;;-144.87;100.00;61487.56;5037662;28;20094;-77
2023/01/22 03:58:39;;;;;;;26.05;12.80;;;;;;;-144.87;100.00;61487.56;4971813;28;20157;-77
2023/01/22 04:01:09;;;;;;;24.83;12.32;;;;;;;-144.87;100.00;61487.56;5004563;28;20038;-77
2023/01/22 04:03:35;;;;;;;26.65;12.88;;;;;;;-144.87;100.00;61487.56;5020707;28;20124;-77
2023/01/22 04:06:04;;;;;;;24.02;12.88;;;;;;;-144.87;100.00;61487.56;5021687;28;20404;-77
2023/01/22 04:08:33;;;;;;;29.05;13.95;;;;;;;-144.87;100.00;61487.56;5006442;28;20034;-77
2023/01/22 04:11:00;;;;;;;28.23;14.27;;;;;;;-144.87;100.00;61487.56;5033337;28;20117;-77
2023/01/22 04:13:29;;;;;;;30.40;15.43;;;;;;;-144.87;100.00;61487.56;5022110;28;20132;-77
2023/01/22 04:15:56;;;;;;;33.17;15.23;;;;;;;-144.87;100.00;61487.56;5035092;28;20504;-78
2023/01/22 04:18:51;;;;;;;36.03;15.63;;;;;;;-144.87;100.00;61487.56;4953145;28;20079;-77
2023/01/22 04:21:29;;;;;;;38.33;17.83;;;;;;;-144.87;100.00;61487.56;5005730;28;20060;-77
2023/01/22 04:23:58;;;;;;;33.50;16.27;;;;;;;-144.87;100.00;61487.56;4989862;28;20041;-78
2023/01/22 04:26:25;;;;;;;35.25;17.98;;;;;;;-144.87;100.00;61487.56;5022502;28;20038;-77
2023/01/22 04:28:52;;;;;;;39.33;17.75;;;;;;;-144.87;100.00;61487.56;5009014;28;20046;-77
2023/01/22 04:31:21;;;;;;;40.60;17.60;;;;;;;-144.87;100.00;61487.56;4988015;28;20120;-77
2023/01/22 04:34:04;;;;;;;38.25;17.88;;;;;;;-144.87;100.00;61487.56;5003262;28;20030;-79
2023/01/22 04:36:32;;;;;;;41.05;19.00;;;;;;;-144.87;100.00;61487.56;4988189;28;20033;-77
2023/01/22 04:38:59;;;;;;;38.92;17.35;;;;;;;-144.87;100.00;61487.56;5038081;28;20269;-77
2023/01/22 04:41:26;;;;;;;40.20;18.27;;;;;;;-144.87;100.00;61487.56;5021618;28;20061;-77
2023/01/22 04:43:52;;;;;;;45.30;19.38;;;;;;;-144.87;100.00;61487.56;5019906;28;20037;-77
2023/01/22 04:46:19;;;;;;;36.65;17.67;;;;;;;-144.87;100.00;61487.56;5022873;28;20161;-77
2023/01/22 04:48:46;;;;;;;41.58;18.17;;;;;;;-144.87;100.00;61487.56;5019384;28;20046;-77
2023/01/22 04:51:13;;;;;;;32.60;17.25;;;;;;;-144.87;100.00;61487.56;5019482;28;20057;-77
2023/01/22 04:53:39;;;;;;;40.75;17.23;;;;;;;-144.87;100.00;61487.56;5004966;28;20136;-76
2023/01/22 04:56:07;;;;;;;38.45;18.73;;;;;;;-144.87;100.00;61487.56;5002535;28;20049;-77
2023/01/22 04:58:33;;;;;;;40.70;18.38;;;;;;;-144.87;100.00;61487.56;5004842;28;20022;-77
2023/01/22 05:01:00;;;;;;;35.83;17.50;;;;;;;-144.87;100.00;61487.56;5015204;28;20052;-76
2023/01/22 05:03:26;;;;;;;38.45;18.98;;;;;;;-144.87;100.00;61487.56;5023481;28;20038;-78
2023/01/22 05:05:52;;;;;;;35.63;16.55;;;;;;;-144.87;100.00;61487.56;5045835;28;21018;-78
2023/01/22 05:08:19;;;;;;;35.97;18.27;;;;;;;-144.87;100.00;61487.56;5041980;28;20045;-77
2023/01/22 05:10:45;;;;;;;36.50;17.75;;;;;;;-144.87;100.00;61487.56;5021720;28;20038;-76
2023/01/22 05:13:18;;;;;;;42.67;18.05;;;;;;;-144.87;100.00;61487.56;5035246;28;20040;-77
2023/01/22 05:15:44;;;;;;;34.13;17.90;;;;;;;-144.87;100.00;61487.56;5021271;28;20044;-77
2023/01/22 05:18:12;;;;;;;37.70;19.02;;;;;;;-144.87;100.00;61487.56;5020604;28;20034;-77
2023/01/22 05:20:45;;;;;;;36.20;18.13;;;;;;;-144.87;100.00;61487.56;5037268;28;20038;-77
2023/01/22 05:23:12;;;;;;;38.92;18.02;;;;;;;-144.87;100.00;61487.56;5004221;28;20037;-78
2023/01/22 05:25:38;;;;;;;35.03;17.15;;;;;;;-144.87;100.00;61487.56;5038045;28;20037;-77
2023/01/22 05:28:05;;;;;;;36.38;17.30;;;;;;;-144.87;100.00;61487.56;5036416;28;20120;-78
2023/01/22 05:30:52;;;;;;;36.47;17.40;;;;;;;-144.87;100.00;61487.56;5017983;28;20351;-77
2023/01/22 05:33:31;;;;;;;40.60;18.00;;;;;;;-144.87;100.00;61487.56;4988573;28;20418;-78
2023/01/22 05:35:58;;;;;;;36.58;17.92;;;;;;;-144.87;100.00;61487.56;5005125;28;20029;-77
2023/01/22 05:38:25;;;;;;;38.78;17.77;;;;;;;-144.87;100.00;61487.56;4986992;28;20045;-77
2023/01/22 05:40:52;;;;;;;30.02;15.93;;;;;;;-144.87;100.00;61487.56;4986350;28;20044;-77
2023/01/22 05:43:19;;;;;;;41.97;17.73;;;;;;;-144.87;100.00;61487.56;5019880;28;20066;-78
2023/01/22 05:45:51;;;;;;;32.97;16.17;;;;;;;-144.87;100.00;61487.56;4986939;28;20046;-77
2023/01/22 05:48:42;;;;;;;28.70;15.70;;;;;;;-144.87;100.00;61487.56;5004375;28;20382;-77
2023/01/22 05:51:18;;;;;;;26.88;14.20;;;;;;;-144.87;100.00;61487.56;5002612;28;20460;-77
2023/01/22 05:53:45;;;;;;;27.23;14.77;;;;;;;-144.87;100.00;61487.56;5020446;28;20033;-78
2023/01/22 05:56:12;;;;;;;32.83;15.70;;;;;;;-144.87;100.00;61487.56;4988370;28;20042;-77
2023/01/22 05:58:39;;;;;;;31.20;15.43;;;;;;;-144.87;100.00;61487.56;5004878;28;20022;-77
2023/01/22 06:01:07;;;;;;;29.27;15.23;;;;;;;-144.87;100.00;61487.56;5036425;28;20038;-77
2023/01/22 06:03:39;;;;;;;31.40;15.43;;;;;;;-144.87;100.00;61487.56;4988337;28;20345;-77
2023/01/22 06:06:09;;;;;;;29.58;15.57;;;;;;;-144.87;100.00;61487.56;5005206;28;20049;-77
2023/01/22 06:08:36;;;;;;;30.30;16.20;;;;;;;-144.87;100.00;61487.56;5032957;28;20029;-77
2023/01/22 06:11:14;;;;;;;28.02;15.23;;;;;;;-144.87;100.00;61487.56;5020734;28;20455;-77
2023/01/22 06:13:44;;;;;;;34.85;15.60;;;;;;;-144.87;100.00;61487.56;5006455;28;20100;-77
2023/01/22 06:16:28;;;;;;;30.42;15.27;;;;;;;-144.87;100.00;61487.56;5040947;28;20048;-77
2023/01/22 06:19:12;;;;;;;30.65;16.15;;;;;;;-144.87;100.00;61487.56;4994181;28;20124;-77
2023/01/22 06:21:42;;;;;;;36.25;16.77;;;;;;;-144.87;100.00;61487.56;5008364;28;20042;-77
2023/01/22 06:24:09;;;;;;;28.90;15.70;;;;;;;-144.87;100.00;61487.56;5025215;28;20152;-77
2023/01/22 06:26:36;;;;;;;36.70;16.88;;;;;;;-144.87;100.00;61487.56;5040611;28;20038;-77
2023/01/22 06:29:05;;;;;;;30.38;15.55;;;;;;;-144.87;100.00;61487.56;5005896;28;20244;-77
2023/01/22 06:31:32;;;;;;;30.63;16.02;;;;;;;-144.87;100.00;61487.56;4992447;28;20030;-77
2023/01/22 06:33:58;;;;;;;29.73;16.75;;;;;;;-144.87;100.00;61487.56;5007903;28;20056;-78
2023/01/22 06:36:25;;;;;;;28.83;15.80;;;;;;;-144.87;100.00;61487.56;5022468;28;20042;-78
2023/01/22 06:38:52;;;;;;;33.05;15.93;;;;;;;-144.87;100.00;61487.56;5004314;28;20045;-77
2023/01/22 06:41:31;;;;;;;29.85;15.65;;;;;;;-144.87;100.00;61487.56;5020115;28;20080;-77
2023/01/22 06:44:00;;;;;;;28.10;15.07;;;;;;;-144.87;100.00;61487.56;5023922;28;20030;-78
2023/01/22 06:46:27;;;;;;;27.33;15.23;;;;;;;-144.87;100.00;61487.56;5008280;28;20038;-78
2023/01/22 06:49:02;;;;;;;29.40;15.80;;;;;;;-144.87;100.00;61487.56;5036708;28;20093;-78
2023/01/22 06:51:31;;;;;;;28.90;16.55;;;;;;;-144.87;100.00;61487.56;5038773;28;20053;-78
2023/01/22 06:53:58;;;;;;;28.13;15.50;;;;;;;-144.87;100.00;61487.56;5023369;28;20034;-77
2023/01/22 06:56:25;;;;;;;27.05;15.18;;;;;;;-144.87;100.00;61487.56;5023393;28;20034;-78
2023/01/22 06:58:52;;;;;;;27.95;15.25;;;;;;;-144.87;100.00;61487.56;5041880;28;20500;-78
2023/01/22 07:01:18;;;;;;;29.70;14.38;;;;;;;-144.87;100.00;61487.56;5006978;28;20751;-78
2023/01/22 07:03:46;;;;;;;30.15;15.43;;;;;;;-144.87;100.00;61487.56;5004814;28;20036;-78
2023/01/22 07:06:14;;;;;;;29.77;15.07;;;;;;;-144.87;100.00;61487.56;4989604;28;20197;-78
2023/01/22 07:08:40;;;;;;;31.30;15.35;;;;;;;-144.87;100.00;61487.56;5022025;28;20046;-78
2023/01/22 07:11:08;;;;;;;28.00;15.25;;;;;;;-144.87;100.00;61487.56;5022108;28;20038;-77
2023/01/22 07:13:34;;;;;;;28.77;15.13;;;;;;;-144.87;100.00;61487.56;5004798;28;20434;-78
2023/01/22 07:16:02;;;;;;;28.25;15.70;;;;;;;-144.87;100.00;61487.56;4990745;28;20041;-78
2023/01/22 07:18:28;;;;;;;26.10;14.23;;;;;;;-144.87;100.00;61487.56;5023245;28;20037;-78
2023/01/22 07:20:58;;;;;;;26.92;14.80;;;;;;;-144.87;100.00;61487.56;5039890;28;20040;-79
2023/01/22 07:23:24;;;;;;;27.73;15.65;;;;;;;-144.87;100.00;61487.56;4987799;28;20489;-78
2023/01/22 07:25:51;;;;;;;25.48;14.85;;;;;;;-144.87;100.00;61487.56;4986657;28;20481;-78
2023/01/22 07:28:17;;;;;;;27.15;15.40;;;;;;;-144.87;100.00;61487.56;5022882;28;20388;-78
2023/01/22 07:30:45;;;;;;;27.65;15.48;;;;;;;-144.87;100.00;61487.56;5046469;28;20155;-79
2023/01/22 07:33:12;;;;;;;26.30;14.65;;;;;;;-144.87;100.00;61487.56;5013751;28;20504;-79
2023/01/22 07:35:39;;;;;;;31.92;15.57;;;;;;;-144.87;100.00;61487.56;5025391;28;20469;-79
2023/01/22 07:38:06;;;;;;;25.60;14.45;;;;;;;-144.87;100.00;61487.56;5038041;28;20607;-79
2023/01/22 07:40:32;;;;;;;31.13;15.30;;;;;;;-144.87;100.00;61487.56;5039881;28;20033;-79
2023/01/22 07:43:03;;;;;;;28.25;14.73;;;;;;;-144.87;100.00;61487.56;5040650;28;20034;-77
2023/01/22 07:45:30;;;;;;;28.98;14.57;;;;;;;-144.87;100.00;61487.56;5007004;28;20046;-78
2023/01/22 07:47:57;;;;;;;26.77;14.60;;;;;;;-144.87;100.00;61487.56;5019517;28;20041;-79
2023/01/22 07:50:26;;;;;;;29.38;14.13;;;;;;;-144.87;100.00;61487.56;5022278;28;20041;-79
2023/01/22 07:52:52;;;;;;;27.30;14.40;;;;;;;-144.87;100.00;61487.56;5003119;28;20064;-79
2023/01/22 07:55:18;;;;;;;21.85;12.77;;;;;;;-144.87;100.00;61487.56;5004804;28;20069;-77
2023/01/22 07:57:45;;;;;;;27.60;13.48;;;;;;;-144.87;100.00;61487.56;5021870;28;20038;-78
2023/01/22 08:00:14;;;;;;;26.98;14.18;;;;;;;-144.87;100.00;61487.56;5007963;28;20038;-79
2023/01/22 08:02:41;;;;;;;23.35;12.93;;;;;;;-144.87;100.00;61487.56;5008242;28;20045;-78
2023/01/22 08:05:08;;;;;;;24.63;13.18;;;;;;;-144.87;100.00;61487.56;5041223;28;20033;-79
2023/01/22 08:07:35;;;;;;;24.38;12.77;;;;;;;-144.87;100.00;61487.56;5019877;28;20054;-79
2023/01/22 08:10:01;;;;;;;24.23;12.77;;;;;;;-144.87;100.00;61487.56;5008730;28;20384;-79
2023/01/22 08:12:28;;;;;;;26.83;14.13;;;;;;;-144.87;100.00;61487.56;5024194;28;20033;-78
2023/01/22 08:14:54;;;;;;;24.83;12.95;;;;;;;-144.87;100.00;61487.56;5006501;28;20041;-78
2023/01/22 08:17:20;;;;;;;25.80;13.05;;;;;;;-144.87;100.00;61487.56;5022722;28;20820;-79
2023/01/22 08:19:46;;;;;;;28.50;13.60;;;;;;;-144.87;100.00;61487.56;5038255;28;20050;-78
2023/01/22 08:22:13;;;;;;;20.45;12.90;;;;;;;-144.87;100.00;61487.56;5023412;28;20374;-78
2023/01/22 08:24:41;;;;;;;25.17;13.18;;;;;;;-144.87;100.00;61487.56;5010132;28;20040;-79
2023/01/22 08:27:07;;;;;;;25.92;13.35;;;;;;;-144.87;100.00;61487.56;5008025;28;20390;-78
2023/01/22 08:29:33;;;;;;;27.75;14.07;;;;;;;-144.87;100.00;61487.56;5006344;28;20087;-78
2023/01/22 08:32:00;;;;;;;20.10;12.40;;;;;;;-144.87;100.00;61487.56;5007536;28;20034;-78
2023/01/22 08:34:26;;;;;;;24.98;12.80;;;;;;;-144.87;100.00;61487.56;5025423;28;20044;-78
2023/01/22 08:36:52;;;;;;;23.13;13.68;;;;;;;-144.87;100.00;61487.56;5025160;28;20034;-79
2023/01/22 08:39:19;;;;;;;25.65;12.77;;;;;;;-144.87;100.00;61487.56;5003782;28;20408;-79
2023/01/22 08:41:45;;;;;;;22.38;12.15;;;;;;;-144.87;100.00;61487.56;5002330;28;20039;-78
2023/01/22 08:44:12;;;;;;;25.38;12.15;;;;;;;-144.87;100.00;61487.56;5022206;28;20032;-78
2023/01/22 08:46:39;;;;;;;20.08;10.98;;;;;;;-144.87;100.00;61487.56;4991022;28;20038;-79
2023/01/22 08:49:25;;;;;;;20.30;11.48;;;;;;;-144.87;100.00;61487.56;5038038;28;20030;-78
2023/01/22 08:51:52;;;;;;;21.45;11.27;;;;;;;-144.87;100.00;61487.56;5018467;28;20054;-79
2023/01/22 08:54:18;;;;;;;21.70;12.82;;;;;;;-144.87;100.00;61487.56;5039228;28;20465;-79
2023/01/22 08:56:45;;;;;;;21.63;11.65;;;;;;;-144.87;100.00;61487.56;5005444;28;20042;-79
2023/01/22 08:59:11;;;;;;;19.70;11.35;;;;;;;-144.87;100.00;61487.56;5004856;28;20121;-79
2023/01/22 09:01:38;;;;;;;21.45;12.38;;;;;;;-144.87;100.00;61487.56;5006548;28;20033;-80
2023/01/22 09:04:06;;;;;;;21.83;11.95;;;;;;;-144.87;100.00;61487.56;5007138;28;20428;-79
2023/01/22 09:06:33;;;;;;;22.05;12.13;;;;;;;-144.87;100.00;61487.56;5005224;28;20037;-79
2023/01/22 09:09:01;;;;;;;21.40;12.18;;;;;;;-144.87;100.00;61487.56;5009263;28;20440;-79
2023/01/22 09:11:28;;;;;;;23.55;12.73;;;;;;;-144.87;100.00;61487.56;5007942;28;20041;-79
2023/01/22 09:13:58;;;;;;;20.90;11.38;;;;;;;-144.87;100.00;61487.56;5004531;28;20492;-80
2023/01/22 09:16:26;;;;;;;19.17;12.23;;;;;;;-144.87;100.00;61487.56;5036894;28;20087;-79
2023/01/22 09:18:52;;;;;;;22.65;11.50;;;;;;;-144.87;100.00;61487.56;5038506;28;20300;-79
2023/01/22 09:21:19;;;;;;;21.45;11.55;;;;;;;-144.87;100.00;61487.56;5006912;28;20053;-79
2023/01/22 09:23:45;;;;;;;22.42;10.57;;;;;;;-144.87;100.00;61487.56;5003104;28;20113;-79
2023/01/22 09:26:11;;;;;;;19.98;11.90;;;;;;;-144.87;100.00;61487.56;5007110;28;20424;-80
2023/01/22 09:28:38;;;;;;;21.08;11.45;;;;;;;-144.87;100.00;61487.56;5006633;28;20034;-79
2023/01/22 09:31:05;;;;;;;17.63;10.57;;;;;;;-144.87;100.00;61487.56;5006555;28;20087;-79
2023/01/22 09:33:31;;;;;;;21.60;11.05;;;;;;;-144.87;100.00;61487.56;5004717;28;20045;-79
2023/01/22 09:36:12;;;;;;;18.70;11.57;;;;;;;-144.87;100.00;61487.56;5037101;28;20046;-79
2023/01/22 09:38:39;;;;;;;;;;;;;;;-144.87;100.00;61487.56;5033665;28;20061;-79
2023/01/22 09:41:33;;;;;;;20.25;11.18;;;;;;;-144.87;100.00;61487.56;5037552;28;19913;-80
2023/01/22 09:44:16;;;;;;;21.10;11.98;;;;;;;-144.87;100.00;61487.56;5019518;28;20121;-78
2023/01/22 09:46:55;;;;;;;22.38;12.10;;;;;;;-144.87;100.00;61487.56;5021341;28;20605;-78
2023/01/22 09:49:27;;;;;;;19.38;10.85;;;;;;;-144.87;100.00;61487.56;5035454;28;20042;-78
2023/01/22 09:51:58;;;;;;;21.35;11.73;;;;;;;-144.87;100.00;61487.56;5016710;28;20080;-78
2023/01/22 09:54:26;;;;;;;;;;;;;;;-144.87;100.00;61487.56;5016275;28;20037;-78
2023/01/22 09:56:56;;;;;;;27.95;12.93;;;;;;;-144.87;100.00;61487.56;5020179;28;19918;-78
2023/01/22 09:59:26;;;;;;;17.05;10.48;;;;;;;-144.87;100.00;61487.56;5029002;28;20045;-77
2023/01/22 10:01:55;;;;;;;19.08;10.88;;;;;;;-144.87;100.00;61487.56;5048987;28;20571;-76
2023/01/22 10:04:36;;;;;;;23.98;10.82;;;;;;;-144.87;100.00;61487.56;4993358;28;20486;-78
2023/01/22 10:07:05;;;;;;;16.65;10.77;;;;;;;-144.87;100.00;61487.56;5018256;28;20550;-78
2023/01/22 10:09:32;;;;;;;20.70;11.15;;;;;;;-144.87;100.00;61487.56;5039853;28;20069;-78
2023/01/22 10:12:01;;;;;;;19.17;10.98;;;;;;;-144.87;100.00;61487.56;5036943;28;20065;-78
2023/01/22 10:14:28;;;;;;;20.55;10.48;;;;;;;-144.87;100.00;61487.56;5023676;28;20469;-78
2023/01/22 10:16:58;;;;;;;18.40;11.60;;;;;;;-144.87;100.00;61487.56;5022330;28;20041;-78
2023/01/22 10:19:28;;;;;;;19.60;9.50;;;;;;;-144.87;100.00;61487.56;5007735;28;20030;-78
2023/01/22 10:21:58;;;;;;;16.80;9.85;;;;;;;-144.87;100.00;61487.56;5008950;28;20088;-78
2023/01/22 10:24:25;;;;;;;15.25;10.27;;;;;;;-144.87;100.00;61487.56;5038494;28;20030;-78
2023/01/22 10:26:53;;;;;;;18.17;9.52;;;;;;;-144.87;100.00;61487.56;5041378;28;20065;-78
2023/01/22 10:29:31;;;;;;;22.70;10.60;;;;;;;-144.87;100.00;61487.56;5017472;28;20045;-78
2023/01/22 10:32:00;;;;;;;24.63;12.05;;;;;;;-144.87;100.00;61487.56;5033401;28;20041;-77
2023/01/22 10:34:35;;;;;;;24.38;11.98;;;;;;;-144.87;100.00;61487.56;4978898;28;20026;-78
2023/01/22 10:37:13;;;;;;;19.58;11.02;;;;;;;-144.87;100.00;61487.56;5007415;28;20121;-77
2023/01/22 10:39:42;;;;;;;21.35;11.38;;;;;;;-144.87;100.00;61487.56;5040404;28;20056;-77
2023/01/22 10:42:19;;;;;;;17.98;11.40;;;;;;;-144.87;100.00;61487.56;5005361;28;20040;-77
2023/01/22 10:44:46;;;;;;;16.92;11.10;;;;;;;-144.87;100.00;61487.56;4998083;28;20042;-77
2023/01/22 10:47:21;;;;;;;16.92;10.52;;;;;;;-144.87;100.00;61487.56;5040340;28;20607;-79
2023/01/22 10:49:59;;;;;;;18.92;11.45;;;;;;;-144.87;100.00;61487.56;5039631;28;20046;-77
2023/01/22 10:52:59;;;;;;;19.52;11.65;;;;;;;-144.87;100.00;61487.56;5039577;28;20471;-77
2023/01/22 10:55:31;;;;;;;17.88;11.15;;;;;;;-144.87;100.00;61487.56;4997751;28;20034;-77
2023/01/22 10:58:04;;;;;;;18.50;10.50;;;;;;;-144.87;100.00;61487.56;5024569;28;20097;-77
2023/01/22 11:00:35;;;;;;;19.67;11.38;;;;;;;-144.87;100.00;61487.56;5025661;28;20025;-78
2023/01/22 11:03:13;;;;;;;19.67;10.95;;;;;;;-144.87;100.00;61487.56;5011422;28;20535;-77
2023/01/22 11:05:43;;;;;;;17.85;11.23;;;;;;;-144.87;100.00;61487.56;5043744;28;20133;-77
2023/01/22 11:08:13;;;;;;;18.48;10.10;;;;;;;-144.87;100.00;61487.56;5011220;28;20112;-78
2023/01/22 11:10:39;;;;;;;16.80;11.73;;;;;;;-144.87;100.00;61487.56;5012699;28;20041;-77